Waynesville, NC (28786)

7:24 AM EST on February 06, 2016 (GMT -0500)
Bethel Vue | | Change Station
CLOSE
Current Station
Personal Weather Station
Location: Waynesville, NC
Elevation: 2895 ft
Nearby Weather Stations

Elev 2895 ft 35.48 °N, 82.92 °W | Updated 39 days ago

Partly Cloudy
Partly Cloudy
35 °F
Feels Like 35 °F
N
1
Wind Variable Wind from North
Gusts mph

Today
High -- | Low -- °F
--% Chance of Precip.
Yesterday
High -- | Low -- °F
Precip. -- in
Pressure 30.41 in
Visibility 5.0 miles
Clouds Clear
Dew Point 19 °F
Humidity 52%
Rainfall in
Snow Depth Not available.
7:27 AM 6:04 PM
Waning Crescent, 6% visible
METAR KAVL 061154Z 00000KT 5SM HZ CLR M05/M08 A3036 RMK AO2 SLP296 T10501078 11033 21050 55001
Pressure 30.41 in
Visibility 5.0 miles
Clouds Clear
Dew Point 19 °F
Humidity 52%
Rainfall in
Snow Depth Not available.
7:27 AM 6:04 PM
Waning Crescent, 6% visible
METAR KAVL 061154Z 00000KT 5SM HZ CLR M05/M08 A3036 RMK AO2 SLP296 T10501078 11033 21050 55001

10-Day Weather Forecast

Almanac

Astronomy

Feb. 06, 2016 Rise Set
Actual Time
Civil Twilight
Nautical Twilight
Astronomical Twilight
Moon
Length of Visible Light
Length of Day
Tomorrow will be .
, % of the Moon is Illuminated

Today's Extremes

State Highs State Lows

Community

WunderPhotos

Upload Photos

1,890,944 photos uploaded!

WunderBlog® & News

Nearby

Air Quality

  Air Quality AQ Index Pollutant
Not available.

Snow Depth

Station Depth Elevation

Earthquake Activity

City Distance Mag. Time & Date
Minimum magnitude displayed is 2.5.

Coastal Water Temperatures

Place Temperature

Stations

Nearby Weather Stations

Station Location Temp. Windchill Dew Point Humidity Wind Precip. Elev Updated Type
                   

Watches & Warnings

There are currently no watches in effect.